Time;durP1;ratioP1;P1;durP2;ratioP2;P2;SDS_P1;SDS_P2;PMS_P1;PMS_P2;Temp;Humidity;BMP_temperature;BMP_pressure;BME280_temperature;BME280_humidity;BME280_pressure;Samples;Min_cycle;Max_cycle;Signal;HPM_P1;HPM_P2
2022/07/16 00:10:05;;;;;;;0.20;0.00;;;29.20;99.90;;;;;;25699444;23;20173;-69
2022/07/16 00:20:11;;;;;;;0.20;0.00;;;29.20;99.90;;;;;;25649681;23;20194;-68
2022/07/16 00:30:15;;;;;;;0.20;0.00;;;29.10;99.90;;;;;;25697650;23;20194;-70
2022/07/16 00:40:20;;;;;;;0.20;0.00;;;29.10;99.90;;;;;;25698305;23;20844;-69
2022/07/16 00:50:24;;;;;;;0.20;0.00;;;28.90;99.90;;;;;;25698237;23;20243;-70
2022/07/16 01:00:30;;;;;;;0.20;0.00;;;28.90;99.90;;;;;;25698164;23;20256;-70
2022/07/16 01:10:34;;;;;;;0.20;0.10;;;28.80;99.90;;;;;;25697834;23;20173;-68
2022/07/16 01:20:40;;;;;;;0.20;0.10;;;28.70;99.90;;;;;;25697873;23;20183;-68
2022/07/16 01:30:46;;;;;;;0.20;0.00;;;28.80;99.90;;;;;;25697662;23;20194;-69
2022/07/16 01:40:50;;;;;;;0.20;0.00;;;28.80;99.90;;;;;;25697427;23;20198;-69
2022/07/16 01:50:55;;;;;;;0.20;0.10;;;28.70;99.90;;;;;;25697306;23;20194;-69
2022/07/16 02:00:59;;;;;;;0.20;0.10;;;28.70;99.90;;;;;;25697224;23;20245;-70
2022/07/16 02:11:05;;;;;;;0.20;0.00;;;28.80;99.90;;;;;;25705443;23;20162;-71
2022/07/16 02:21:09;;;;;;;0.20;0.00;;;28.50;99.90;;;;;;25704882;23;20190;-69
2022/07/16 02:31:14;;;;;;;0.20;0.03;;;28.40;99.90;;;;;;25703459;23;20162;-69
2022/07/16 02:41:18;;;;;;;0.20;0.00;;;28.30;99.90;;;;;;25704213;23;20186;-69
2022/07/16 02:51:23;;;;;;;0.20;0.00;;;28.40;99.90;;;;;;25703543;23;20174;-69
2022/07/16 03:01:27;;;;;;;0.20;0.00;;;28.20;99.90;;;;;;25702394;23;20202;-69
2022/07/16 03:11:32;;;;;;;0.20;0.00;;;28.10;99.90;;;;;;25675878;23;20180;-71
2022/07/16 03:21:36;;;;;;;0.20;0.00;;;27.90;99.90;;;;;;25702802;23;20193;-70
2022/07/16 03:31:41;;;;;;;0.20;0.00;;;27.50;99.90;;;;;;25702242;23;20177;-70
2022/07/16 03:41:45;;;;;;;0.20;0.00;;;27.30;99.90;;;;;;25676007;23;20186;-71
2022/07/16 03:51:50;;;;;;;0.20;0.10;;;27.30;99.90;;;;;;25701951;23;20162;-69
2022/07/16 04:01:54;;;;;;;0.20;0.00;;;27.40;99.90;;;;;;25700293;23;20202;-69
2022/07/16 04:11:59;;;;;;;0.20;0.10;;;27.60;99.90;;;;;;25699532;23;20169;-70
2022/07/16 04:22:03;;;;;;;0.20;0.10;;;27.50;99.90;;;;;;25674783;23;20236;-70
2022/07/16 04:32:08;;;;;;;0.20;0.08;;;27.30;99.90;;;;;;25699054;23;20162;-69
2022/07/16 04:42:12;;;;;;;0.20;0.00;;;27.60;99.90;;;;;;25698961;23;20296;-68
2022/07/16 04:52:17;;;;;;;0.20;0.00;;;27.80;99.90;;;;;;25698865;23;20174;-69
2022/07/16 05:12:44;;;;;;;0.20;0.00;;;27.30;99.90;;;;;;25698336;23;20165;-69
2022/07/16 05:22:49;;;;;;;0.20;0.00;;;27.20;99.90;;;;;;25697827;23;20186;-69
2022/07/16 05:32:54;;;;;;;0.20;0.10;;;27.10;99.90;;;;;;25697378;23;20174;-69
2022/07/16 05:42:58;;;;;;;0.20;0.00;;;27.20;99.90;;;;;;25669672;23;20273;-68
2022/07/16 05:53:03;;;;;;;0.20;0.00;;;27.40;99.90;;;;;;25695326;23;20166;-68
2022/07/16 06:03:07;;;;;;;0.20;0.00;;;27.70;99.90;;;;;;25695138;23;20206;-71
2022/07/16 06:13:12;;;;;;;0.20;0.00;;;27.90;99.90;;;;;;25695289;23;20185;-69
2022/07/16 06:23:16;;;;;;;0.20;0.00;;;28.10;99.90;;;;;;25693244;23;20205;-70
2022/07/16 06:33:21;;;;;;;0.20;0.10;;;28.50;99.90;;;;;;25693280;23;20166;-71
2022/07/16 06:43:25;;;;;;;0.20;0.00;;;28.70;99.90;;;;;;25666904;23;20198;-71
2022/07/16 06:53:31;;;;;;;0.20;0.00;;;28.80;99.90;;;;;;25697421;23;20217;-70
2022/07/16 07:03:35;;;;;;;0.20;0.00;;;29.00;99.90;;;;;;25697683;23;20202;-69
2022/07/16 07:13:40;;;;;;;0.20;0.00;;;29.10;99.90;;;;;;25698492;23;20173;-69
2022/07/16 07:23:44;;;;;;;0.20;0.00;;;29.20;99.90;;;;;;25671727;23;20262;-70
2022/07/16 07:33:50;;;;;;;0.20;0.03;;;29.50;99.90;;;;;;25696713;23;20261;-70
2022/07/16 07:43:53;;;;;;;0.20;0.00;;;29.60;99.90;;;;;;25698236;23;20206;-71
2022/07/16 07:53:58;;;;;;;0.20;0.00;;;29.70;99.90;;;;;;25697246;23;20209;-69
2022/07/16 08:04:03;;;;;;;0.20;0.00;;;29.70;99.90;;;;;;25694596;23;20198;-70
2022/07/16 08:14:09;;;;;;;0.20;0.10;;;29.90;99.90;;;;;;25695794;23;20189;-69
2022/07/16 08:34:54;;;;;;;0.20;0.00;;;29.90;99.90;;;;;;25667266;23;20182;-69
2022/07/16 08:44:58;;;;;;;0.20;0.00;;;30.10;99.90;;;;;;25668939;23;20213;-68
2022/07/16 08:55:04;;;;;;;0.20;0.00;;;30.00;99.90;;;;;;25693473;23;20212;-69
2022/07/16 09:05:09;;;;;;;0.20;0.10;;;30.00;99.90;;;;;;25667796;23;20202;-68
2022/07/16 09:15:31;;;;;;;0.20;0.00;;;30.30;99.90;;;;;;25692284;23;20209;-68
2022/07/16 09:25:35;;;;;;;0.20;0.08;;;30.20;99.90;;;;;;25690082;23;20185;-70
2022/07/16 09:35:41;;;;;;;0.20;0.00;;;30.20;99.90;;;;;;25690232;23;20178;-69
2022/07/16 09:45:46;;;;;;;0.20;0.00;;;30.40;99.90;;;;;;25688932;23;20189;-69
2022/07/16 09:56:02;;;;;;;0.20;0.00;;;30.50;99.90;;;;;;25688190;23;20169;-69
2022/07/16 10:06:07;;;;;;;0.20;0.00;;;30.90;99.90;;;;;;25686964;23;20217;-68
2022/07/16 10:16:13;;;;;;;0.20;0.00;;;31.00;99.90;;;;;;25688548;23;20178;-68
2022/07/16 10:26:20;;;;;;;0.20;0.00;;;31.30;99.90;;;;;;25665701;23;20216;-68
2022/07/16 10:36:45;;;;;;;0.20;0.00;;;31.60;99.90;;;;;;25670683;23;20194;-67
2022/07/16 10:46:54;;;;;;;0.20;0.03;;;31.90;99.90;;;;;;25670937;23;20190;-68
2022/07/16 10:57:01;;;;;;;0.20;0.00;;;32.00;99.90;;;;;;25696017;23;20158;-68
2022/07/16 11:07:09;;;;;;;0.20;0.00;;;32.40;99.90;;;;;;25694103;23;20202;-68
2022/07/16 11:17:18;;;;;;;0.20;0.10;;;32.70;99.90;;;;;;25694659;23;20173;-68
2022/07/16 11:27:26;;;;;;;0.20;0.00;;;32.20;99.90;;;;;;25668026;23;20213;-68
2022/07/16 11:37:47;;;;;;;0.20;0.00;;;32.70;99.90;;;;;;25642118;23;20226;-67
2022/07/16 11:48:09;;;;;;;0.20;0.00;;;33.70;99.90;;;;;;25688268;23;20182;-68
2022/07/16 11:58:15;;;;;;;0.20;0.00;;;34.30;99.90;;;;;;25653637;23;20274;-67
2022/07/16 12:08:19;;;;;;;0.20;0.10;;;34.60;99.90;;;;;;25666745;23;20265;-68
2022/07/16 12:18:35;;;;;;;0.20;0.00;;;34.30;99.90;;;;;;25691569;23;20177;-67
2022/07/16 12:28:39;;;;;;;0.20;0.00;;;34.10;99.90;;;;;;25687755;23;20189;-68
2022/07/16 12:38:49;;;;;;;0.20;0.00;;;34.90;99.90;;;;;;25692430;23;20186;-69
2022/07/16 12:48:57;;;;;;;0.20;0.00;;;35.40;99.90;;;;;;25692407;23;20193;-70
2022/07/16 12:59:03;;;;;;;0.20;0.00;;;35.50;99.90;;;;;;25642233;23;20230;-69
2022/07/16 13:09:09;;;;;;;0.20;0.00;;;35.50;99.90;;;;;;25691772;23;20207;-68
2022/07/16 13:19:14;;;;;;;0.20;0.00;;;36.60;99.90;;;;;;25692709;23;20166;-69
2022/07/16 13:29:18;;;;;;;0.20;0.00;;;37.20;99.90;;;;;;25692448;23;20189;-67
2022/07/16 13:39:23;;;;;;;0.20;0.00;;;36.00;99.90;;;;;;25664896;23;20193;-69
2022/07/16 13:49:27;;;;;;;0.20;0.00;;;36.30;99.90;;;;;;25662288;23;20206;-67
2022/07/16 13:59:32;;;;;;;0.20;0.00;;;36.40;99.90;;;;;;25688869;23;20220;-68
2022/07/16 14:09:37;;;;;;;0.20;0.00;;;36.30;99.90;;;;;;25697059;23;20194;-69
2022/07/16 14:19:42;;;;;;;0.20;0.00;;;35.80;99.90;;;;;;25697995;23;20162;-67
2022/07/16 14:29:47;;;;;;;0.20;0.00;;;35.70;99.90;;;;;;25660475;23;20305;-68
2022/07/16 14:39:52;;;;;;;0.20;0.00;;;36.00;99.90;;;;;;25684726;23;20257;-68
2022/07/16 14:49:56;;;;;;;0.20;0.00;;;37.10;99.90;;;;;;25683751;23;20249;-69
2022/07/16 15:00:02;;;;;;;0.20;0.00;;;35.90;99.90;;;;;;25682077;23;20213;-68
2022/07/16 15:10:07;;;;;;;0.20;0.00;;;35.90;99.90;;;;;;25682940;23;20332;-68
2022/07/16 15:20:19;;;;;;;0.20;0.00;;;35.80;99.90;;;;;;25682591;23;20170;-67
2022/07/16 15:30:23;;;;;;;0.20;0.00;;;35.00;99.90;;;;;;25653557;23;20190;-68
2022/07/16 15:40:29;;;;;;;0.20;0.00;;;35.70;99.90;;;;;;25681170;23;20194;-66
2022/07/16 15:50:53;;;;;;;0.20;0.00;;;35.50;99.90;;;;;;25681704;23;20197;-68
2022/07/16 16:00:59;;;;;;;0.20;0.00;;;36.20;99.90;;;;;;25653601;23;20198;-67
2022/07/16 16:11:03;;;;;;;0.20;0.00;;;35.20;99.90;;;;;;25655292;23;20178;-69
2022/07/16 16:21:09;;;;;;;0.20;0.00;;;34.50;99.90;;;;;;25654844;23;20238;-67
2022/07/16 16:31:13;;;;;;;0.20;0.00;;;32.50;99.90;;;;;;25679910;23;20222;-68
2022/07/16 16:41:18;;;;;;;0.20;0.00;;;32.20;99.90;;;;;;25655120;23;20237;-69
2022/07/16 16:51:22;;;;;;;0.20;0.00;;;32.10;99.90;;;;;;25679240;23;20314;-69
2022/07/16 17:01:29;;;;;;;0.20;0.00;;;32.20;99.90;;;;;;25662480;23;20216;-69
2022/07/16 17:11:33;;;;;;;0.20;0.00;;;32.50;99.90;;;;;;25687848;23;20173;-69
2022/07/16 17:21:38;;;;;;;0.20;0.00;;;33.30;99.90;;;;;;25690354;23;20166;-69
2022/07/16 17:31:42;;;;;;;0.20;0.00;;;33.80;99.90;;;;;;25665133;23;20181;-69
2022/07/16 17:41:48;;;;;;;0.20;0.00;;;34.00;99.90;;;;;;25691488;23;20189;-69
2022/07/16 17:51:51;;;;;;;0.20;0.00;;;33.60;99.90;;;;;;25691711;23;20220;-69
2022/07/16 18:01:57;;;;;;;0.20;0.10;;;33.80;99.90;;;;;;25660200;23;20228;-68
2022/07/16 18:12:01;;;;;;;0.20;0.00;;;33.70;99.90;;;;;;25665413;23;20171;-69
2022/07/16 18:22:06;;;;;;;0.20;0.00;;;33.00;99.90;;;;;;25690431;23;20186;-68
2022/07/16 18:32:11;;;;;;;0.20;0.00;;;33.10;99.90;;;;;;25663044;23;20177;-69
2022/07/16 18:42:16;;;;;;;0.20;0.00;;;33.10;99.90;;;;;;25688883;23;20186;-68
2022/07/16 18:52:21;;;;;;;0.20;0.00;;;32.40;99.90;;;;;;25693672;23;20174;-69
2022/07/16 19:02:26;;;;;;;0.20;0.00;;;31.10;99.90;;;;;;25695883;23;20210;-68
2022/07/16 19:12:30;;;;;;;0.20;0.08;;;30.40;99.90;;;;;;25697298;23;20755;-67
2022/07/16 19:22:36;;;;;;;0.20;0.00;;;29.80;99.90;;;;;;25669456;23;20186;-71
2022/07/16 19:32:40;;;;;;;0.20;0.00;;;29.50;99.90;;;;;;25659821;23;20170;-69
2022/07/16 19:42:45;;;;;;;0.20;0.00;;;29.20;99.90;;;;;;25681880;23;20201;-68
2022/07/16 19:52:49;;;;;;;0.20;0.00;;;28.90;99.90;;;;;;25678846;23;20174;-71
2022/07/16 20:02:54;;;;;;;0.20;0.10;;;28.60;99.90;;;;;;25679432;23;20282;-70
2022/07/16 20:12:58;;;;;;;0.20;0.00;;;28.50;99.90;;;;;;25680655;23;20221;-70
2022/07/16 20:23:04;;;;;;;0.20;0.00;;;28.10;99.90;;;;;;25680867;23;20210;-71
2022/07/16 20:33:09;;;;;;;0.20;0.00;;;27.70;99.90;;;;;;25684211;23;20222;-70
2022/07/16 20:43:14;;;;;;;0.20;0.03;;;27.90;99.90;;;;;;25655562;23;20542;-69
2022/07/16 20:53:19;;;;;;;0.20;0.00;;;27.70;99.90;;;;;;25683716;23;20285;-71
2022/07/16 21:03:24;;;;;;;0.20;0.10;;;27.30;99.90;;;;;;25682439;23;20293;-70
2022/07/16 21:13:29;;;;;;;0.20;0.10;;;27.20;99.90;;;;;;25663686;23;20197;-70
2022/07/16 21:23:34;;;;;;;0.20;0.10;;;27.10;99.90;;;;;;25682336;23;20217;-66
2022/07/16 21:33:38;;;;;;;0.20;0.00;;;27.00;99.90;;;;;;25648784;23;20230;-67
2022/07/16 21:43:57;;;;;;;0.20;0.10;;;27.10;99.90;;;;;;25652003;23;20213;-68
2022/07/16 21:54:00;;;;;;;0.20;0.00;;;26.80;99.90;;;;;;25683370;23;20178;-70
2022/07/16 22:04:06;;;;;;;0.20;0.00;;;27.00;99.90;;;;;;25687544;23;20197;-70
2022/07/16 22:14:20;;;;;;;0.20;0.00;;;26.80;99.90;;;;;;25685062;23;20174;-70
2022/07/16 22:24:25;;;;;;;0.20;0.00;;;26.80;99.90;;;;;;25697391;23;20274;-71
2022/07/16 22:34:29;;;;;;;0.20;0.00;;;26.90;99.90;;;;;;25694952;23;20174;-70
2022/07/16 22:44:34;;;;;;;0.20;0.00;;;26.60;99.90;;;;;;25687619;23;20205;-70
2022/07/16 22:54:38;;;;;;;0.20;0.00;;;26.40;99.90;;;;;;25687475;23;20197;-70
2022/07/16 23:04:43;;;;;;;0.20;0.00;;;26.60;99.90;;;;;;25685270;23;20294;-71
2022/07/16 23:14:47;;;;;;;0.20;0.00;;;26.80;99.90;;;;;;25685918;23;20250;-71
2022/07/16 23:24:53;;;;;;;0.20;0.00;;;26.60;99.90;;;;;;25694475;23;20233;-71
2022/07/16 23:34:57;;;;;;;0.20;0.00;;;26.80;99.90;;;;;;25685732;23;20250;-70
2022/07/16 23:45:02;;;;;;;0.20;0.00;;;26.80;99.90;;;;;;25684763;23;20250;-71
2022/07/16 23:55:07;;;;;;;0.20;0.00;;;26.70;99.90;;;;;;25688079;23;20175;-73
